createdAt,value
2023-09-17T00:01:55.695Z,4.60
2023-09-17T00:04:22.904Z,4.63
2023-09-17T00:06:49.861Z,4.70
2023-09-17T00:09:16.902Z,4.83
2023-09-17T00:11:43.918Z,4.57
2023-09-17T00:14:11.084Z,4.38
2023-09-17T00:16:38.300Z,4.40
2023-09-17T00:19:05.490Z,4.57
2023-09-17T00:21:32.478Z,4.87
2023-09-17T00:23:59.418Z,4.63
2023-09-17T00:26:26.354Z,4.80
2023-09-17T00:28:53.249Z,5.03
2023-09-17T00:31:20.281Z,4.75
2023-09-17T00:33:47.379Z,4.90
2023-09-17T00:36:14.365Z,4.75
2023-09-17T00:38:41.386Z,5.00
2023-09-17T00:41:08.330Z,5.10
2023-09-17T00:43:35.302Z,5.07
2023-09-17T00:46:02.466Z,4.60
2023-09-17T00:48:29.586Z,4.72
2023-09-17T00:50:56.536Z,4.88
2023-09-17T00:53:23.684Z,5.20
2023-09-17T00:55:50.891Z,5.10
2023-09-17T00:58:17.909Z,5.10
2023-09-17T01:00:45.232Z,4.80
2023-09-17T01:03:12.584Z,5.28
2023-09-17T01:05:47.236Z,5.32
2023-09-17T01:08:14.494Z,4.90
2023-09-17T01:10:41.733Z,4.87
2023-09-17T01:13:09.617Z,4.90
2023-09-17T01:15:36.986Z,5.13
2023-09-17T01:18:05.190Z,5.50
2023-09-17T01:20:40.152Z,4.97
2023-09-17T01:23:42.111Z,5.40
2023-09-17T01:26:17.061Z,4.90
2023-09-17T01:28:44.459Z,5.32
2023-09-17T01:31:11.441Z,4.90
2023-09-17T01:33:38.542Z,4.80
2023-09-17T01:36:12.334Z,4.80
2023-09-17T01:38:45.086Z,4.90
2023-09-17T01:41:12.163Z,5.00
2023-09-17T01:43:39.864Z,4.72
2023-09-17T01:46:07.593Z,4.55
2023-09-17T01:48:35.917Z,4.70
2023-09-17T01:51:05.181Z,4.95
2023-09-17T01:53:33.513Z,4.78
2023-09-17T01:56:00.851Z,5.10
2023-09-17T01:58:27.880Z,4.97
2023-09-17T02:00:54.856Z,5.50
2023-09-17T02:03:21.879Z,4.60
2023-09-17T02:05:48.908Z,4.70
2023-09-17T02:08:15.931Z,4.60
2023-09-17T02:10:42.926Z,4.90
2023-09-17T02:13:09.818Z,4.87
2023-09-17T02:15:36.877Z,4.80
2023-09-17T02:18:04.028Z,4.93
2023-09-17T02:20:30.986Z,4.80
2023-09-17T02:22:58.073Z,5.10
2023-09-17T02:25:25.035Z,4.93
2023-09-17T02:27:52.011Z,4.93
2023-09-17T02:30:18.996Z,5.20
2023-09-17T02:32:45.897Z,4.75
2023-09-17T02:35:12.837Z,4.78
2023-09-17T02:37:39.897Z,4.80
2023-09-17T02:40:07.372Z,4.95
2023-09-17T02:42:34.285Z,4.80
2023-09-17T02:45:01.234Z,4.72
2023-09-17T02:47:28.363Z,5.00
2023-09-17T02:49:55.438Z,5.17
2023-09-17T02:52:22.528Z,4.97
2023-09-17T02:54:49.395Z,5.03
2023-09-17T02:57:16.295Z,5.13
2023-09-17T02:59:43.196Z,5.35
2023-09-17T03:02:10.150Z,4.90
2023-09-17T03:04:37.167Z,4.80
2023-09-17T03:07:04.372Z,5.00
2023-09-17T03:09:31.775Z,4.80
2023-09-17T03:11:58.701Z,5.28
2023-09-17T03:14:25.633Z,4.90
2023-09-17T03:16:52.650Z,4.80
2023-09-17T03:19:19.653Z,4.93
2023-09-17T03:21:46.785Z,4.78
2023-09-17T03:24:13.688Z,5.18
2023-09-17T03:26:40.605Z,5.07
2023-09-17T03:29:07.654Z,5.10
2023-09-17T03:31:35.788Z,5.18
2023-09-17T03:34:02.740Z,5.20
2023-09-17T03:36:29.689Z,5.20
2023-09-17T03:38:56.642Z,5.17
2023-09-17T03:41:23.655Z,4.88
2023-09-17T03:43:50.845Z,5.00
2023-09-17T03:46:17.974Z,5.03
2023-09-17T03:48:44.956Z,5.15
2023-09-17T03:51:12.096Z,5.17
2023-09-17T03:53:39.279Z,5.00
2023-09-17T03:56:06.307Z,5.25
2023-09-17T03:58:33.307Z,5.60
2023-09-17T04:01:00.244Z,4.82
2023-09-17T04:03:27.166Z,5.20
2023-09-17T04:05:54.118Z,4.60
2023-09-17T04:08:21.000Z,5.00
2023-09-17T04:10:47.951Z,4.68
2023-09-17T04:13:14.986Z,4.72
2023-09-17T04:15:41.863Z,4.80
2023-09-17T04:18:08.808Z,4.90
2023-09-17T04:20:35.854Z,4.82
2023-09-17T04:23:02.929Z,4.88
2023-09-17T04:25:30.015Z,5.20
2023-09-17T04:27:57.066Z,5.03
2023-09-17T04:30:23.988Z,5.20
2023-09-17T04:32:53.012Z,4.88
2023-09-17T04:35:20.120Z,4.80
2023-09-17T04:37:49.364Z,4.60
2023-09-17T04:40:17.505Z,4.63
2023-09-17T04:42:45.260Z,4.53
2023-09-17T04:45:12.862Z,4.80
2023-09-17T04:47:40.821Z,4.65
2023-09-17T04:50:09.637Z,5.00
2023-09-17T04:52:37.680Z,4.60
2023-09-17T04:55:06.432Z,5.28
2023-09-17T04:57:33.497Z,5.22
2023-09-17T05:00:01.987Z,5.20
2023-09-17T05:02:29.028Z,4.90
2023-09-17T05:04:56.342Z,4.90
2023-09-17T05:07:23.292Z,4.78
2023-09-17T05:09:50.261Z,4.95
2023-09-17T05:12:17.253Z,4.95
2023-09-17T05:14:44.157Z,5.32
2023-09-17T05:17:11.120Z,5.30
2023-09-17T05:19:38.243Z,4.80
2023-09-17T05:22:05.193Z,4.50
2023-09-17T05:24:32.123Z,4.55
2023-09-17T05:26:59.329Z,5.18
2023-09-17T05:29:26.393Z,5.40
2023-09-17T05:31:53.545Z,4.95
2023-09-17T05:34:20.709Z,4.88
2023-09-17T05:36:47.688Z,4.88
2023-09-17T05:39:14.582Z,4.88
2023-09-17T05:41:41.701Z,4.40
2023-09-17T05:44:08.726Z,4.88
2023-09-17T05:46:35.708Z,5.25
2023-09-17T05:49:02.686Z,4.80
2023-09-17T05:51:29.590Z,4.85
2023-09-17T05:53:56.593Z,5.27
2023-09-17T05:56:23.578Z,5.00
2023-09-17T05:58:50.542Z,5.05
2023-09-17T06:01:17.549Z,5.40
2023-09-17T06:03:44.642Z,4.57
2023-09-17T06:06:11.646Z,4.50
2023-09-17T06:08:38.598Z,4.90
2023-09-17T06:11:05.553Z,4.88
2023-09-17T06:13:32.485Z,5.22
2023-09-17T06:15:59.837Z,4.75
2023-09-17T06:18:26.830Z,4.80
2023-09-17T06:20:53.776Z,4.95
2023-09-17T06:23:20.651Z,4.90
2023-09-17T06:25:47.704Z,4.90
2023-09-17T06:28:14.650Z,4.80
2023-09-17T06:30:42.102Z,4.73
2023-09-17T06:33:09.641Z,5.00
2023-09-17T06:35:36.667Z,4.75
2023-09-17T06:38:03.693Z,4.78
2023-09-17T06:40:31.206Z,4.68
2023-09-17T06:42:58.199Z,4.57
2023-09-17T06:45:25.147Z,4.65
2023-09-17T06:47:52.209Z,4.93
2023-09-17T06:50:22.318Z,4.80
2023-09-17T06:52:49.370Z,4.85
2023-09-17T06:55:16.399Z,4.70
2023-09-17T06:57:43.291Z,5.18
2023-09-17T07:00:10.795Z,4.82
2023-09-17T07:02:37.829Z,5.20
2023-09-17T07:05:05.508Z,5.10
2023-09-17T07:07:32.585Z,5.27
2023-09-17T07:09:59.729Z,5.35
2023-09-17T07:12:26.667Z,5.07
2023-09-17T07:14:53.664Z,5.07
2023-09-17T07:17:20.635Z,5.10
2023-09-17T07:19:47.781Z,4.90
2023-09-17T07:22:14.825Z,5.20
2023-09-17T07:24:42.951Z,5.13
2023-09-17T07:27:09.922Z,4.70
2023-09-17T07:29:36.848Z,4.88
2023-09-17T07:32:04.208Z,4.53
2023-09-17T07:34:31.215Z,4.90
2023-09-17T07:36:58.185Z,4.75
2023-09-17T07:39:25.228Z,5.20
2023-09-17T07:41:52.155Z,4.50
2023-09-17T07:44:19.102Z,4.50
2023-09-17T07:46:46.192Z,4.53
2023-09-17T07:49:13.136Z,4.00
2023-09-17T07:51:40.062Z,4.18
2023-09-17T07:54:07.499Z,4.55
2023-09-17T07:56:34.440Z,6.17
2023-09-17T07:59:01.426Z,4.70
2023-09-17T08:01:28.570Z,4.50
2023-09-17T08:03:55.797Z,4.60
2023-09-17T08:06:23.064Z,4.13
2023-09-17T08:08:50.030Z,4.40
2023-09-17T08:11:17.221Z,4.18
2023-09-17T08:13:44.277Z,3.90
2023-09-17T08:16:11.420Z,4.03
2023-09-17T08:18:38.341Z,3.80
2023-09-17T08:21:05.376Z,4.10
2023-09-17T08:23:32.918Z,4.10
2023-09-17T08:26:02.242Z,4.10
2023-09-17T08:28:29.359Z,4.65
2023-09-17T08:30:56.430Z,4.35
2023-09-17T08:33:23.388Z,4.00
2023-09-17T08:35:50.415Z,4.38
2023-09-17T08:38:17.488Z,4.25
2023-09-17T08:40:44.764Z,4.45
2023-09-17T08:43:12.108Z,4.22
2023-09-17T08:45:39.240Z,3.87
2023-09-17T08:48:06.632Z,4.05
2023-09-17T08:50:36.522Z,4.10
2023-09-17T08:53:08.106Z,4.10
2023-09-17T08:55:35.443Z,4.18
2023-09-17T08:58:14.875Z,4.10
2023-09-17T09:00:50.067Z,3.95
2023-09-17T09:03:20.948Z,4.00
2023-09-17T09:05:49.298Z,3.75
2023-09-17T09:08:17.156Z,3.95
2023-09-17T09:10:47.549Z,3.80
2023-09-17T09:13:14.738Z,4.20
2023-09-17T09:15:42.668Z,4.05
2023-09-17T09:18:11.630Z,4.18
2023-09-17T09:20:42.574Z,3.35
2023-09-17T09:23:09.657Z,3.20
2023-09-17T09:25:36.682Z,3.38
2023-09-17T09:28:03.714Z,3.47
2023-09-17T09:30:31.167Z,3.30
2023-09-17T09:32:58.584Z,3.20
2023-09-17T09:35:26.661Z,3.50
2023-09-17T09:37:54.207Z,3.53
2023-09-17T09:40:21.407Z,3.38
2023-09-17T09:42:48.437Z,3.30
2023-09-17T09:45:15.633Z,3.03
2023-09-17T09:47:47.944Z,3.33
2023-09-17T09:50:29.355Z,3.20
2023-09-17T09:52:56.464Z,3.20
2023-09-17T09:55:27.060Z,3.20
2023-09-17T09:57:54.630Z,3.10
2023-09-17T10:00:31.421Z,4.10
2023-09-17T10:02:58.578Z,3.05
2023-09-17T10:05:35.761Z,2.80
2023-09-17T10:08:03.240Z,3.20
2023-09-17T10:10:30.830Z,2.80
2023-09-17T10:12:58.370Z,2.90
2023-09-17T10:15:28.040Z,3.22
2023-09-17T10:17:57.878Z,3.38
2023-09-17T10:20:27.612Z,3.25
2023-09-17T10:22:55.170Z,2.88
2023-09-17T10:25:23.623Z,3.30
2023-09-17T10:27:53.395Z,3.30
2023-09-17T10:30:21.343Z,3.03
2023-09-17T10:32:50.145Z,3.00
2023-09-17T10:35:17.230Z,3.05
2023-09-17T10:37:45.351Z,2.80
2023-09-17T10:40:14.473Z,3.58
2023-09-17T10:42:41.494Z,3.25
2023-09-17T10:45:11.137Z,3.20
2023-09-17T10:47:40.361Z,3.20
2023-09-17T10:50:08.944Z,3.73
2023-09-17T10:52:38.828Z,3.65
2023-09-17T10:55:06.031Z,4.22
2023-09-17T10:57:40.704Z,3.20
2023-09-17T11:00:12.683Z,3.45
2023-09-17T11:02:43.376Z,3.77
2023-09-17T11:05:13.942Z,3.42
2023-09-17T11:07:43.586Z,3.42
2023-09-17T11:10:29.474Z,3.30
2023-09-17T11:12:59.210Z,3.40
2023-09-17T11:15:26.592Z,4.00
2023-09-17T11:17:59.548Z,3.50
2023-09-17T11:20:26.963Z,3.65
2023-09-17T11:22:54.272Z,3.80
2023-09-17T11:25:38.663Z,3.85
2023-09-17T11:28:13.291Z,3.87
2023-09-17T11:31:15.911Z,3.90
2023-09-17T11:33:43.808Z,3.50
2023-09-17T11:36:11.647Z,3.90
2023-09-17T11:38:38.797Z,3.78
2023-09-17T11:41:11.270Z,3.63
2023-09-17T11:43:48.120Z,3.80
2023-09-17T11:46:16.422Z,3.72
2023-09-17T11:48:43.853Z,3.50
2023-09-17T11:51:28.222Z,3.67
2023-09-17T11:54:08.713Z,3.80
2023-09-17T11:56:45.624Z,3.80
2023-09-17T11:59:12.721Z,4.05
2023-09-17T12:01:45.112Z,3.60
2023-09-17T12:04:13.523Z,3.70
2023-09-17T12:06:45.422Z,3.60
2023-09-17T12:09:12.709Z,3.70
2023-09-17T12:11:39.727Z,3.58
2023-09-17T12:14:06.981Z,3.30
2023-09-17T12:16:34.237Z,3.50
2023-09-17T12:19:15.837Z,4.00
2023-09-17T12:21:47.401Z,3.78
2023-09-17T12:24:27.480Z,3.70
2023-09-17T12:27:21.089Z,3.40
2023-09-17T12:29:48.169Z,3.55
2023-09-17T12:32:16.935Z,3.57
2023-09-17T12:34:44.073Z,3.30
2023-09-17T12:37:11.104Z,3.22
2023-09-17T12:39:38.277Z,3.50
2023-09-17T12:42:05.402Z,3.55
2023-09-17T12:44:32.452Z,3.50
2023-09-17T12:47:00.224Z,3.40
2023-09-17T12:49:27.326Z,3.42
2023-09-17T12:51:54.361Z,3.60
2023-09-17T12:54:21.358Z,4.35
2023-09-17T12:56:52.283Z,3.60
2023-09-17T12:59:36.847Z,3.45
2023-09-17T13:02:05.707Z,3.38
2023-09-17T13:04:43.701Z,3.70
2023-09-17T13:07:21.435Z,3.55
2023-09-17T13:09:50.198Z,3.40
2023-09-17T13:12:21.212Z,3.70
2023-09-17T13:14:49.557Z,3.38
2023-09-17T13:17:17.016Z,3.08
2023-09-17T13:19:44.480Z,3.30
2023-09-17T13:22:11.815Z,3.50
2023-09-17T13:24:41.261Z,4.05
2023-09-17T13:27:11.130Z,3.30
2023-09-17T13:29:41.107Z,3.10
2023-09-17T13:32:10.110Z,3.45
2023-09-17T13:34:43.767Z,3.40
2023-09-17T13:37:11.944Z,2.97
2023-09-17T13:39:43.302Z,3.63
2023-09-17T13:42:10.656Z,4.07
2023-09-17T13:44:37.826Z,3.60
2023-09-17T13:47:08.720Z,3.40
2023-09-17T13:49:35.818Z,3.00
2023-09-17T13:52:02.759Z,3.35
2023-09-17T13:54:29.705Z,3.70
2023-09-17T13:56:56.733Z,3.20
2023-09-17T13:59:23.669Z,3.30
2023-09-17T14:01:50.772Z,3.00
2023-09-17T14:04:17.913Z,3.20
2023-09-17T14:06:44.847Z,4.07
2023-09-17T14:09:11.946Z,3.00
2023-09-17T14:11:38.956Z,3.40
2023-09-17T14:14:05.972Z,3.20
2023-09-17T14:16:33.011Z,3.30
2023-09-17T14:19:00.145Z,3.10
2023-09-17T14:21:27.225Z,3.00
2023-09-17T14:23:54.148Z,2.93
2023-09-17T14:26:21.294Z,3.28
2023-09-17T14:28:48.475Z,3.20
2023-09-17T14:31:15.457Z,3.45
2023-09-17T14:33:42.555Z,3.42
2023-09-17T14:36:09.569Z,3.30
2023-09-17T14:38:36.967Z,3.28
2023-09-17T14:41:04.029Z,3.20
2023-09-17T14:43:31.027Z,2.90
2023-09-17T14:45:59.103Z,3.00
2023-09-17T14:48:26.142Z,3.20
2023-09-17T14:50:54.262Z,3.50
2023-09-17T14:53:21.422Z,3.17
2023-09-17T14:55:48.558Z,3.15
2023-09-17T14:58:15.602Z,2.92
2023-09-17T15:00:42.701Z,3.47
2023-09-17T15:03:10.020Z,3.85
2023-09-17T15:05:37.153Z,3.50
2023-09-17T15:08:04.501Z,3.90
2023-09-17T15:10:32.288Z,4.18
2023-09-17T15:13:01.660Z,4.17
2023-09-17T15:15:28.793Z,3.90
2023-09-17T15:17:55.919Z,4.10
2023-09-17T15:20:23.668Z,4.03
2023-09-17T15:22:50.743Z,4.20
2023-09-17T15:25:18.406Z,3.90
2023-09-17T15:27:45.495Z,3.92
2023-09-17T15:30:12.769Z,4.28
2023-09-17T15:32:40.791Z,4.10
2023-09-17T15:35:08.392Z,4.20
2023-09-17T15:37:35.455Z,4.13
2023-09-17T15:40:02.471Z,3.70
2023-09-17T15:42:29.420Z,4.40
2023-09-17T15:44:56.334Z,4.00
2023-09-17T15:47:23.662Z,4.05
2023-09-17T15:49:50.811Z,3.80
2023-09-17T15:52:17.800Z,3.67
2023-09-17T15:54:44.971Z,3.75
2023-09-17T15:57:13.281Z,3.80
2023-09-17T15:59:40.797Z,3.28
2023-09-17T16:02:07.967Z,3.80
2023-09-17T16:04:34.992Z,3.60
2023-09-17T16:07:03.127Z,4.00
2023-09-17T16:09:30.514Z,3.75
2023-09-17T16:11:57.445Z,3.30
2023-09-17T16:14:24.945Z,3.50
2023-09-17T16:16:52.312Z,3.20
2023-09-17T16:19:21.470Z,3.40
2023-09-17T16:21:48.921Z,3.42
2023-09-17T16:24:16.221Z,3.40
2023-09-17T16:26:43.174Z,3.17
2023-09-17T16:29:10.217Z,3.17
2023-09-17T16:31:37.354Z,3.30
2023-09-17T16:34:04.453Z,3.72
2023-09-17T16:36:31.527Z,3.45
2023-09-17T16:38:59.847Z,3.30
2023-09-17T16:41:27.178Z,3.47
2023-09-17T16:43:54.405Z,3.20
2023-09-17T16:46:21.824Z,3.58
2023-09-17T16:48:48.831Z,3.55
2023-09-17T16:51:16.292Z,3.63
2023-09-17T16:53:43.335Z,3.80
2023-09-17T16:56:10.646Z,3.90
2023-09-17T16:58:40.383Z,3.70
2023-09-17T17:01:07.674Z,3.55
2023-09-17T17:03:34.870Z,3.50
2023-09-17T17:06:02.423Z,3.60
2023-09-17T17:08:29.596Z,3.60
2023-09-17T17:10:57.135Z,3.20
2023-09-17T17:13:24.188Z,3.75
2023-09-17T17:15:51.315Z,3.57
2023-09-17T17:18:18.479Z,3.85
2023-09-17T17:20:45.552Z,3.60
2023-09-17T17:23:14.255Z,3.80
2023-09-17T17:25:43.372Z,3.80
2023-09-17T17:28:14.703Z,3.77
2023-09-17T17:30:42.753Z,3.83
2023-09-17T17:33:09.823Z,4.10
2023-09-17T17:35:36.792Z,3.78
2023-09-17T17:38:04.045Z,4.55
2023-09-17T17:40:33.686Z,6.23
2023-09-17T17:43:01.074Z,4.20
2023-09-17T17:45:30.824Z,4.85
2023-09-17T17:47:57.879Z,4.47
2023-09-17T17:50:24.948Z,4.28
2023-09-17T17:52:53.120Z,3.80
2023-09-17T17:55:22.720Z,4.07
2023-09-17T17:57:49.891Z,4.10
2023-09-17T18:00:17.064Z,3.58
2023-09-17T18:02:47.078Z,4.22
2023-09-17T18:05:15.561Z,3.60
2023-09-17T18:07:43.008Z,3.53
2023-09-17T18:10:10.814Z,3.30
2023-09-17T18:12:39.075Z,3.83
2023-09-17T18:15:10.539Z,3.72
2023-09-17T18:17:39.284Z,4.03
2023-09-17T18:20:06.893Z,3.63
2023-09-17T18:22:34.119Z,3.78
2023-09-17T18:25:01.141Z,4.00
2023-09-17T18:27:29.930Z,4.10
2023-09-17T18:29:57.932Z,4.07
2023-09-17T18:32:26.295Z,4.40
2023-09-17T18:34:54.942Z,4.68
2023-09-17T18:37:22.365Z,4.25
2023-09-17T18:39:49.727Z,4.32
2023-09-17T18:42:18.720Z,4.17
2023-09-17T18:44:45.872Z,4.28
2023-09-17T18:47:13.120Z,4.50
2023-09-17T18:49:40.260Z,4.28
2023-09-17T18:52:07.917Z,4.40
2023-09-17T18:54:34.973Z,4.50
2023-09-17T18:57:02.009Z,4.50
2023-09-17T18:59:29.752Z,4.70
2023-09-17T19:01:58.104Z,4.63
2023-09-17T19:04:27.026Z,4.05
2023-09-17T19:06:58.320Z,4.70
2023-09-17T19:09:25.883Z,4.38
2023-09-17T19:11:53.274Z,4.68
2023-09-17T19:14:20.420Z,4.32
2023-09-17T19:16:47.861Z,4.50
2023-09-17T19:19:15.198Z,4.63
2023-09-17T19:21:42.247Z,4.70
2023-09-17T19:24:10.066Z,4.55
2023-09-17T19:26:38.139Z,4.65
2023-09-17T19:29:05.853Z,4.78
2023-09-17T19:31:33.124Z,4.70
2023-09-17T19:34:01.642Z,4.63
2023-09-17T19:36:29.014Z,4.40
2023-09-17T19:38:56.184Z,4.53
2023-09-17T19:41:23.297Z,4.90
2023-09-17T19:43:50.938Z,5.07
2023-09-17T19:46:19.299Z,5.05
2023-09-17T19:48:48.883Z,4.68
2023-09-17T19:51:16.420Z,4.50
2023-09-17T19:53:43.819Z,4.60
2023-09-17T19:56:11.993Z,4.20
2023-09-17T19:58:39.921Z,3.90
2023-09-17T20:01:07.092Z,4.00
2023-09-17T20:03:34.758Z,4.18
2023-09-17T20:06:02.378Z,4.30
2023-09-17T20:08:29.396Z,3.97
2023-09-17T20:10:57.110Z,3.80
2023-09-17T20:13:24.310Z,3.70
2023-09-17T20:15:51.490Z,4.05
2023-09-17T20:18:19.484Z,4.40
2023-09-17T20:20:46.680Z,3.70
2023-09-17T20:23:14.451Z,3.90
2023-09-17T20:25:41.835Z,3.50
2023-09-17T20:28:08.832Z,4.20
2023-09-17T20:30:39.356Z,3.70
2023-09-17T20:33:07.933Z,3.63
2023-09-17T20:35:35.652Z,3.60
2023-09-17T20:38:02.582Z,3.92
2023-09-17T20:40:30.603Z,3.50
2023-09-17T20:42:57.960Z,3.90
2023-09-17T20:45:25.008Z,3.93
2023-09-17T20:47:52.997Z,4.03
2023-09-17T20:50:20.377Z,3.90
2023-09-17T20:52:47.863Z,3.50
2023-09-17T20:55:14.910Z,3.80
2023-09-17T20:57:42.543Z,3.40
2023-09-17T21:00:10.091Z,3.72
2023-09-17T21:02:37.114Z,3.47
2023-09-17T21:05:04.586Z,3.60
2023-09-17T21:07:31.746Z,3.50
2023-09-17T21:09:59.392Z,3.77
2023-09-17T21:12:26.826Z,3.50
2023-09-17T21:14:53.791Z,3.50
2023-09-17T21:17:20.916Z,3.45
2023-09-17T21:19:48.025Z,3.50
2023-09-17T21:22:15.680Z,3.40
2023-09-17T21:24:42.648Z,3.60
2023-09-17T21:27:09.770Z,3.80
2023-09-17T21:29:36.703Z,3.88
2023-09-17T21:32:04.493Z,3.47
2023-09-17T21:34:31.701Z,3.63
2023-09-17T21:36:58.769Z,3.50
2023-09-17T21:39:26.326Z,3.60
2023-09-17T21:41:53.389Z,3.42
2023-09-17T21:44:20.366Z,3.40
2023-09-17T21:46:47.371Z,3.30
2023-09-17T21:49:14.402Z,3.40
2023-09-17T21:51:41.249Z,3.45
2023-09-17T21:54:08.220Z,3.30
2023-09-17T21:56:35.330Z,3.30
2023-09-17T21:59:02.329Z,3.60
2023-09-17T22:01:29.295Z,3.55
2023-09-17T22:03:56.472Z,3.30
2023-09-17T22:06:23.448Z,3.40
2023-09-17T22:08:50.686Z,3.50
2023-09-17T22:11:17.774Z,3.50
2023-09-17T22:13:44.702Z,3.38
2023-09-17T22:16:11.644Z,3.25
2023-09-17T22:18:38.653Z,3.40
2023-09-17T22:21:06.955Z,3.40
2023-09-17T22:23:35.033Z,3.50
2023-09-17T22:26:05.001Z,3.47
2023-09-17T22:28:32.033Z,3.22
2023-09-17T22:31:08.547Z,3.38
2023-09-17T22:33:35.505Z,3.63
2023-09-17T22:36:06.683Z,3.30
2023-09-17T22:38:33.719Z,3.20
2023-09-17T22:41:00.671Z,3.50
2023-09-17T22:43:27.583Z,3.65
2023-09-17T22:45:54.651Z,3.97
2023-09-17T22:48:21.590Z,3.30
2023-09-17T22:50:48.525Z,3.15
2023-09-17T22:53:15.512Z,3.30
2023-09-17T22:55:42.409Z,3.78
2023-09-17T22:58:09.270Z,3.97
2023-09-17T23:00:36.314Z,3.80
2023-09-17T23:03:03.381Z,3.20
2023-09-17T23:05:30.491Z,3.47
2023-09-17T23:07:57.612Z,3.47
2023-09-17T23:10:24.557Z,3.60
2023-09-17T23:12:51.450Z,3.63
2023-09-17T23:15:18.467Z,3.70
2023-09-17T23:17:45.375Z,3.53
2023-09-17T23:20:12.405Z,3.65
2023-09-17T23:22:39.423Z,3.72
2023-09-17T23:25:06.745Z,3.60
2023-09-17T23:27:33.682Z,3.63
2023-09-17T23:30:01.245Z,3.90
2023-09-17T23:32:28.340Z,3.40
2023-09-17T23:34:55.418Z,3.90
2023-09-17T23:37:22.712Z,3.67
2023-09-17T23:39:49.744Z,3.75
2023-09-17T23:42:16.662Z,4.00
2023-09-17T23:44:43.670Z,3.67
2023-09-17T23:47:10.653Z,3.53
2023-09-17T23:49:37.593Z,3.37
2023-09-17T23:52:04.847Z,3.70
2023-09-17T23:54:31.795Z,3.88
2023-09-17T23:56:58.722Z,3.70
2023-09-17T23:59:25.982Z,3.65
